Janesville, Wisconsin
Current Conditions -  °F | °C
As of 7:45 AM on Sunday 23 Nov 2014 (Local Time) from KJVL Reporting Station
Haze Haze  
Wind Chill: 43°   Ceiling: 600
Heat Index: 48°   Visibility: 3mi
Dew Point: 46°   Wind: 12mph
Humidity: 93%   Direction: 180°S
Pressure: 29.68"   Gusts: NA
Location:  42.69°N, 89.02°W
Report Text: KJVL 231345Z 18010KT 3SM BR BKN006 OVC010 09/08 A2968
Loading
Personal Weather Stations






























Interactive Weather Map New forecast layout! Learn more

10-Day Weather Forecast

Advertisements
Track Severe Weather on mobile